createdAt,value
2023-11-30T00:01:32.412Z,98413.75
2023-11-30T00:04:35.194Z,98422.39
2023-11-30T00:07:38.168Z,98418.89
2023-11-30T00:10:40.935Z,98419.98
2023-11-30T00:13:43.701Z,98423.38
2023-11-30T00:16:46.780Z,98426.80
2023-11-30T00:19:49.500Z,98423.69
2023-11-30T00:22:52.288Z,98427.39
2023-11-30T00:25:55.077Z,98434.70
2023-11-30T00:28:57.771Z,98437.58
2023-11-30T00:32:00.614Z,98436.92
2023-11-30T00:35:03.696Z,98443.24
2023-11-30T00:38:06.387Z,98443.67
2023-11-30T00:41:15.318Z,98446.41
2023-11-30T00:44:19.655Z,98452.59
2023-11-30T00:47:22.462Z,98453.23
2023-11-30T00:50:25.578Z,98451.95
2023-11-30T00:53:28.383Z,98464.05
2023-11-30T00:56:31.197Z,98466.39
2023-11-30T00:59:33.922Z,98462.84
2023-11-30T01:02:36.949Z,98466.98
2023-11-30T01:05:39.654Z,98466.45
2023-11-30T01:08:42.525Z,98474.23
2023-11-30T01:11:45.616Z,98478.50
2023-11-30T01:14:48.450Z,98485.45
2023-11-30T01:17:51.527Z,98491.54
2023-11-30T01:20:54.550Z,98500.08
2023-11-30T01:23:57.509Z,98501.17
2023-11-30T01:27:00.404Z,98502.14
2023-11-30T01:30:04.370Z,98497.04
2023-11-30T01:33:07.277Z,98504.08
2023-11-30T01:36:10.826Z,98500.96
2023-11-30T01:39:15.515Z,98503.98
2023-11-30T01:42:18.264Z,98501.63
2023-11-30T01:45:20.977Z,98504.33
2023-11-30T01:48:24.901Z,98505.31
2023-11-30T01:51:28.328Z,98503.14
2023-11-30T01:54:31.948Z,98504.47
2023-11-30T01:57:35.105Z,98507.30
2023-11-30T02:00:38.943Z,98512.61
2023-11-30T02:03:41.885Z,98506.91
2023-11-30T02:06:46.418Z,98504.72
2023-11-30T02:09:49.206Z,98511.77
2023-11-30T02:12:51.952Z,98510.59
2023-11-30T02:15:54.914Z,98509.73
2023-11-30T02:18:58.357Z,98510.96
2023-11-30T02:22:01.225Z,98512.02
2023-11-30T02:25:04.616Z,98509.45
2023-11-30T02:28:07.372Z,98499.92
2023-11-30T02:31:10.659Z,98508.02
2023-11-30T02:34:13.600Z,98507.84
2023-11-30T02:37:16.503Z,98504.37
2023-11-30T02:40:19.897Z,98511.40
2023-11-30T02:43:23.777Z,98510.46
2023-11-30T02:46:26.634Z,98511.62
2023-11-30T02:49:29.609Z,98512.39
2023-11-30T02:52:32.579Z,98514.58
2023-11-30T02:55:35.349Z,98519.93
2023-11-30T02:58:38.116Z,98521.08
2023-11-30T03:01:48.343Z,98523.92
2023-11-30T03:04:51.199Z,98516.74
2023-11-30T03:07:54.020Z,98514.54
2023-11-30T03:10:56.670Z,98515.18
2023-11-30T03:13:59.481Z,98511.76
2023-11-30T03:17:02.604Z,98509.90
2023-11-30T03:20:06.165Z,98507.78
2023-11-30T03:23:09.095Z,98504.90
2023-11-30T03:26:12.542Z,98504.95
2023-11-30T03:29:15.410Z,98505.80
2023-11-30T03:32:18.173Z,98505.14
2023-11-30T03:35:21.053Z,98504.46
2023-11-30T03:38:23.910Z,98506.48
2023-11-30T03:41:26.893Z,98507.95
2023-11-30T03:44:29.753Z,98510.73
2023-11-30T03:47:32.533Z,98508.42
2023-11-30T03:50:35.228Z,98504.75
2023-11-30T03:53:38.162Z,98505.92
2023-11-30T03:56:40.931Z,98501.45
2023-11-30T03:59:43.650Z,98500.67
2023-11-30T04:02:46.579Z,98499.25
2023-11-30T04:05:49.538Z,98497.41
2023-11-30T04:08:53.069Z,98503.45
2023-11-30T04:11:55.988Z,98495.71
2023-11-30T04:14:58.818Z,98500.87
2023-11-30T04:18:04.343Z,98502.38
2023-11-30T04:21:08.527Z,98504.87
2023-11-30T04:24:11.453Z,98501.83
2023-11-30T04:27:14.284Z,98502.36
2023-11-30T04:30:17.265Z,98502.61
2023-11-30T04:33:20.282Z,98506.34
2023-11-30T04:36:23.483Z,98503.51
2023-11-30T04:39:26.467Z,98502.81
2023-11-30T04:42:29.398Z,98504.20
2023-11-30T04:45:32.188Z,98504.36
2023-11-30T04:48:35.091Z,98504.34
2023-11-30T04:51:38.776Z,98508.20
2023-11-30T04:54:41.934Z,98507.88
2023-11-30T04:57:44.872Z,98505.54
2023-11-30T05:00:49.273Z,98506.73
2023-11-30T05:03:52.816Z,98506.80
2023-11-30T05:06:55.728Z,98503.65
2023-11-30T05:09:58.503Z,98502.42
2023-11-30T05:13:01.594Z,98501.13
2023-11-30T05:16:04.859Z,98499.58
2023-11-30T05:19:07.626Z,98494.74
2023-11-30T05:22:12.291Z,98501.62
2023-11-30T05:25:15.309Z,98504.58
2023-11-30T05:28:18.312Z,98502.99
2023-11-30T05:31:21.284Z,98502.50
2023-11-30T05:34:24.118Z,98500.95
2023-11-30T05:37:26.992Z,98503.27
2023-11-30T05:40:30.336Z,98504.93
2023-11-30T05:43:35.616Z,98505.00
2023-11-30T05:46:39.580Z,98499.27
2023-11-30T05:49:42.853Z,98499.15
2023-11-30T05:52:45.656Z,98508.13
2023-11-30T05:55:48.518Z,98511.23
2023-11-30T05:58:51.282Z,98522.77
2023-11-30T06:01:54.161Z,98524.60
2023-11-30T06:04:56.995Z,98536.10
2023-11-30T06:07:59.858Z,98532.40
2023-11-30T06:11:02.655Z,98530.05
2023-11-30T06:14:05.826Z,98535.60
2023-11-30T06:17:08.916Z,98531.35
2023-11-30T06:20:13.761Z,98537.31
2023-11-30T06:23:16.666Z,98540.66
2023-11-30T06:26:20.089Z,98548.54
2023-11-30T06:29:23.006Z,98551.61
2023-11-30T06:32:25.912Z,98556.10
2023-11-30T06:35:28.632Z,98558.08
2023-11-30T06:38:32.461Z,98556.19
2023-11-30T06:41:35.458Z,98557.54
2023-11-30T06:44:38.333Z,98555.61
2023-11-30T06:47:41.244Z,98554.73
2023-11-30T06:50:44.169Z,98555.48
2023-11-30T06:53:46.916Z,98553.50
2023-11-30T06:56:49.689Z,98556.88
2023-11-30T06:59:52.461Z,98556.55
2023-11-30T07:02:55.583Z,98561.84
2023-11-30T07:05:59.170Z,98562.90
2023-11-30T07:09:02.023Z,98568.26
2023-11-30T07:12:05.064Z,98568.21
2023-11-30T07:15:08.879Z,98569.41
2023-11-30T07:18:15.409Z,98572.17
2023-11-30T07:21:18.748Z,98575.21
2023-11-30T07:24:21.801Z,98579.51
2023-11-30T07:27:24.695Z,98585.61
2023-11-30T07:30:27.660Z,98584.80
2023-11-30T07:33:30.892Z,98588.13
2023-11-30T07:36:33.615Z,98586.15
2023-11-30T07:39:36.421Z,98588.12
2023-11-30T07:42:39.288Z,98589.39
2023-11-30T07:45:42.151Z,98590.59
2023-11-30T07:48:45.473Z,98591.77
2023-11-30T07:51:48.405Z,98586.52
2023-11-30T07:54:51.281Z,98591.27
2023-11-30T07:57:54.039Z,98585.31
2023-11-30T08:00:58.358Z,98585.20
2023-11-30T08:04:01.296Z,98591.35
2023-11-30T08:07:04.973Z,98587.49
2023-11-30T08:10:08.258Z,98582.42
2023-11-30T08:13:12.350Z,98581.95
2023-11-30T08:16:16.153Z,98583.66
2023-11-30T08:19:19.001Z,98584.21
2023-11-30T08:22:21.909Z,98578.92
2023-11-30T08:25:24.886Z,98580.95
2023-11-30T08:28:27.756Z,98583.63
2023-11-30T08:31:30.828Z,98583.31
2023-11-30T08:34:33.651Z,98583.14
2023-11-30T08:37:36.577Z,98583.33
2023-11-30T08:40:39.691Z,98584.29
2023-11-30T08:43:42.413Z,98581.36
2023-11-30T08:46:45.184Z,98578.08
2023-11-30T08:49:48.148Z,98577.54
2023-11-30T08:52:50.920Z,98579.11
2023-11-30T08:55:53.623Z,98577.96
2023-11-30T08:58:56.356Z,98580.95
2023-11-30T09:01:59.138Z,98582.23
2023-11-30T09:05:01.997Z,98585.77
2023-11-30T09:08:04.995Z,98584.27
2023-11-30T09:11:07.943Z,98582.44
2023-11-30T09:14:10.649Z,98584.16
2023-11-30T09:17:13.872Z,98586.58
2023-11-30T09:20:17.060Z,98585.24
2023-11-30T09:23:19.926Z,98585.51
2023-11-30T09:26:23.229Z,98584.71
2023-11-30T09:29:26.131Z,98587.23
2023-11-30T09:32:28.875Z,98586.71
2023-11-30T09:35:31.595Z,98588.91
2023-11-30T09:38:34.309Z,98585.80
2023-11-30T09:41:39.691Z,98583.11
2023-11-30T09:44:43.327Z,98582.23
2023-11-30T09:47:46.377Z,98575.19
2023-11-30T09:50:50.692Z,98573.63
2023-11-30T09:53:59.143Z,98572.02
2023-11-30T09:57:01.857Z,98566.22
2023-11-30T10:00:07.202Z,98560.47
2023-11-30T10:03:10.526Z,98560.86
2023-11-30T10:06:14.319Z,98560.11
2023-11-30T10:09:18.047Z,98558.89
2023-11-30T10:12:22.088Z,98557.00
2023-11-30T10:15:24.974Z,98557.86
2023-11-30T10:18:29.388Z,98555.37
2023-11-30T10:21:32.418Z,98553.20
2023-11-30T10:24:35.188Z,98553.92
2023-11-30T10:27:38.321Z,98552.42
2023-11-30T10:30:43.722Z,98544.05
2023-11-30T10:33:54.668Z,98545.75
2023-11-30T10:37:02.527Z,98542.29
2023-11-30T10:40:11.479Z,98544.34
2023-11-30T10:43:16.982Z,98545.88
2023-11-30T10:46:21.113Z,98544.80
2023-11-30T10:49:25.861Z,98554.11
2023-11-30T10:52:29.779Z,98553.17
2023-11-30T10:55:32.549Z,98554.27
2023-11-30T10:58:37.328Z,98550.29
2023-11-30T11:01:45.364Z,98558.21
2023-11-30T11:04:48.294Z,98554.67
2023-11-30T11:07:53.305Z,98549.84
2023-11-30T11:11:06.641Z,98539.67
2023-11-30T11:14:09.411Z,98536.39
2023-11-30T11:17:12.216Z,98532.36
2023-11-30T11:20:27.616Z,98528.75
2023-11-30T11:23:40.280Z,98531.40
2023-11-30T11:26:48.309Z,98536.36
2023-11-30T11:29:51.039Z,98532.63
2023-11-30T11:32:59.266Z,98526.53
2023-11-30T11:36:14.886Z,98525.33
2023-11-30T11:39:18.062Z,98519.64
2023-11-30T11:42:20.883Z,98518.89
2023-11-30T11:45:23.794Z,98508.11
2023-11-30T11:48:27.593Z,98508.27
2023-11-30T11:51:30.433Z,98506.45
2023-11-30T11:54:33.597Z,98507.34
2023-11-30T11:57:37.508Z,98509.52
2023-11-30T12:00:40.458Z,98508.30
2023-11-30T12:03:51.621Z,98504.62
2023-11-30T12:06:54.561Z,98501.42
2023-11-30T12:09:57.963Z,98496.52
2023-11-30T12:13:02.541Z,98492.69
2023-11-30T12:16:06.534Z,98493.88
2023-11-30T12:19:10.673Z,98490.71
2023-11-30T12:22:15.219Z,98489.58
2023-11-30T12:25:18.586Z,98482.71
2023-11-30T12:28:21.473Z,98481.58
2023-11-30T12:31:24.314Z,98483.73
2023-11-30T12:34:27.021Z,98482.13
2023-11-30T12:37:29.936Z,98480.29
2023-11-30T12:40:32.879Z,98482.63
2023-11-30T12:43:35.586Z,98482.23
2023-11-30T12:46:39.512Z,98486.33
2023-11-30T12:49:45.438Z,98482.61
2023-11-30T12:52:48.914Z,98483.03
2023-11-30T12:55:51.765Z,98481.60
2023-11-30T12:58:54.523Z,98487.88
2023-11-30T13:01:58.064Z,98487.86
2023-11-30T13:05:00.969Z,98481.41
2023-11-30T13:08:03.937Z,98481.74
2023-11-30T13:11:06.800Z,98478.92
2023-11-30T13:14:10.187Z,98481.41
2023-11-30T13:17:14.507Z,98483.40
2023-11-30T13:20:17.294Z,98485.52
2023-11-30T13:23:21.400Z,98485.73
2023-11-30T13:26:24.128Z,98479.98
2023-11-30T13:29:27.149Z,98480.95
2023-11-30T13:32:35.413Z,98478.02
2023-11-30T13:35:40.499Z,98471.42
2023-11-30T13:38:43.223Z,98476.73
2023-11-30T13:41:46.470Z,98477.34
2023-11-30T13:44:49.539Z,98477.94
2023-11-30T13:47:58.240Z,98475.39
2023-11-30T13:51:03.359Z,98472.16
2023-11-30T13:54:07.443Z,98474.59
2023-11-30T13:57:10.233Z,98469.80
2023-11-30T14:00:14.189Z,98467.42
2023-11-30T14:03:17.869Z,98470.10
2023-11-30T14:06:20.855Z,98473.89
2023-11-30T14:09:29.243Z,98474.02
2023-11-30T14:12:31.994Z,98472.17
2023-11-30T14:15:34.862Z,98472.05
2023-11-30T14:18:37.677Z,98466.85
2023-11-30T14:21:40.817Z,98467.23
2023-11-30T14:24:43.825Z,98466.52
2023-11-30T14:27:46.629Z,98465.33
2023-11-30T14:30:49.490Z,98464.62
2023-11-30T14:33:52.551Z,98461.87
2023-11-30T14:36:55.351Z,98465.34
2023-11-30T14:39:58.280Z,98463.97
2023-11-30T14:43:01.088Z,98466.36
2023-11-30T14:46:04.210Z,98464.60
2023-11-30T14:49:07.349Z,98468.79
2023-11-30T14:52:10.800Z,98471.56
2023-11-30T14:55:14.352Z,98471.97
2023-11-30T14:58:17.294Z,98461.27
2023-11-30T15:01:21.156Z,98459.84
2023-11-30T15:04:24.015Z,98458.45
2023-11-30T15:07:26.899Z,98457.95
2023-11-30T15:10:31.834Z,98464.91
2023-11-30T15:13:34.692Z,98466.01
2023-11-30T15:16:39.222Z,98467.39
2023-11-30T15:19:42.298Z,98469.05
2023-11-30T15:22:45.241Z,98466.44
2023-11-30T15:25:48.017Z,98463.59
2023-11-30T15:28:50.762Z,98459.32
2023-11-30T15:31:53.555Z,98456.38
2023-11-30T15:34:56.297Z,98453.23
2023-11-30T15:38:00.198Z,98454.63
2023-11-30T15:41:04.625Z,98460.13
2023-11-30T15:44:07.346Z,98464.07
2023-11-30T15:47:10.119Z,98466.80
2023-11-30T15:50:12.912Z,98471.81
2023-11-30T15:53:15.672Z,98469.29
2023-11-30T15:56:20.093Z,98474.95
2023-11-30T15:59:22.801Z,98481.85
2023-11-30T16:02:25.510Z,98491.02
2023-11-30T16:05:30.304Z,98489.90
2023-11-30T16:08:33.001Z,98490.02
2023-11-30T16:11:35.685Z,98492.54
2023-11-30T16:14:38.416Z,98496.50
2023-11-30T16:17:41.398Z,98498.16
2023-11-30T16:20:44.669Z,98487.36
2023-11-30T16:23:48.655Z,98489.21
2023-11-30T16:26:54.795Z,98486.08
2023-11-30T16:29:57.540Z,98488.73
2023-11-30T16:33:00.396Z,98491.84
2023-11-30T16:36:03.769Z,98497.88
2023-11-30T16:39:06.443Z,98498.05
2023-11-30T16:42:09.816Z,98495.84
2023-11-30T16:45:13.973Z,98490.27
2023-11-30T16:48:17.065Z,98491.70
2023-11-30T16:51:20.168Z,98491.21
2023-11-30T16:54:23.034Z,98490.02
2023-11-30T16:57:25.791Z,98486.90
2023-11-30T17:00:28.962Z,98483.59
2023-11-30T17:03:31.749Z,98481.97
2023-11-30T17:06:34.565Z,98483.47
2023-11-30T17:09:40.336Z,98481.53
2023-11-30T17:12:44.046Z,98483.77
2023-11-30T17:15:48.285Z,98481.04
2023-11-30T17:18:51.379Z,98475.17
2023-11-30T17:21:54.185Z,98473.71
2023-11-30T17:24:57.040Z,98477.42
2023-11-30T17:27:59.904Z,98473.66
2023-11-30T17:31:03.160Z,98468.98
2023-11-30T17:34:06.226Z,98462.15
2023-11-30T17:37:10.007Z,98459.66
2023-11-30T17:40:13.397Z,98459.23
2023-11-30T17:43:17.485Z,98456.51
2023-11-30T17:46:20.200Z,98458.88
2023-11-30T17:49:24.174Z,98460.65
2023-11-30T17:52:27.004Z,98461.55
2023-11-30T17:55:31.664Z,98463.15
2023-11-30T17:58:34.427Z,98465.11
2023-11-30T18:01:37.417Z,98465.62
2023-11-30T18:04:40.200Z,98461.56
2023-11-30T18:07:42.898Z,98458.02
2023-11-30T18:10:45.667Z,98455.17
2023-11-30T18:13:48.711Z,98456.98
2023-11-30T18:16:51.421Z,98446.00
2023-11-30T18:19:54.393Z,98448.96
2023-11-30T18:22:57.168Z,98444.78
2023-11-30T18:26:00.047Z,98443.06
2023-11-30T18:29:02.749Z,98437.61
2023-11-30T18:32:05.519Z,98437.41
2023-11-30T18:35:08.425Z,98434.45
2023-11-30T18:38:12.114Z,98431.55
2023-11-30T18:41:15.186Z,98434.55
2023-11-30T18:44:17.934Z,98432.64
2023-11-30T18:47:20.624Z,98427.72
2023-11-30T18:50:23.374Z,98434.88
2023-11-30T18:53:26.229Z,98436.92
2023-11-30T18:56:30.057Z,98437.98
2023-11-30T18:59:32.751Z,98443.89
2023-11-30T19:02:35.462Z,98451.13
2023-11-30T19:05:38.375Z,98458.06
2023-11-30T19:08:41.076Z,98456.61
2023-11-30T19:11:46.786Z,98455.30
2023-11-30T19:14:49.589Z,98457.53
2023-11-30T19:17:52.466Z,98458.42
2023-11-30T19:20:55.232Z,98455.98
2023-11-30T19:23:58.034Z,98462.55
2023-11-30T19:27:00.787Z,98465.77
2023-11-30T19:30:03.741Z,98474.58
2023-11-30T19:33:06.584Z,98468.84
2023-11-30T19:36:10.372Z,98470.98
2023-11-30T19:39:13.045Z,98469.65
2023-11-30T19:42:15.764Z,98471.33
2023-11-30T19:45:18.554Z,98471.25
2023-11-30T19:48:21.367Z,98470.27
2023-11-30T19:51:25.163Z,98467.53
2023-11-30T19:54:27.942Z,98462.53
2023-11-30T19:57:33.984Z,98461.59
2023-11-30T20:00:36.856Z,98463.48
2023-11-30T20:03:40.475Z,98461.88
2023-11-30T20:06:43.341Z,98455.10
2023-11-30T20:09:46.129Z,98453.51
2023-11-30T20:12:53.669Z,98456.73
2023-11-30T20:15:56.521Z,98463.79
2023-11-30T20:18:59.264Z,98468.15
2023-11-30T20:22:02.292Z,98464.05
2023-11-30T20:25:07.346Z,98463.34
2023-11-30T20:28:10.453Z,98463.58
2023-11-30T20:31:15.214Z,98468.90
2023-11-30T20:34:18.089Z,98465.89
2023-11-30T20:37:20.813Z,98465.61
2023-11-30T20:40:23.586Z,98458.97
2023-11-30T20:43:26.309Z,98459.84
2023-11-30T20:46:29.154Z,98457.13
2023-11-30T20:49:31.892Z,98455.01
2023-11-30T20:52:35.507Z,98456.08
2023-11-30T20:55:38.382Z,98459.26
2023-11-30T20:58:44.537Z,98464.02
2023-11-30T21:01:47.432Z,98461.73
2023-11-30T21:04:50.380Z,98463.75
2023-11-30T21:07:53.167Z,98467.41
2023-11-30T21:10:55.955Z,98468.00
2023-11-30T21:13:58.688Z,98471.42
2023-11-30T21:17:01.464Z,98468.50
2023-11-30T21:20:05.117Z,98468.03
2023-11-30T21:23:07.859Z,98474.99
2023-11-30T21:26:10.661Z,98477.95
2023-11-30T21:29:13.594Z,98475.61
2023-11-30T21:32:16.418Z,98474.71
2023-11-30T21:35:19.127Z,98473.55
2023-11-30T21:38:21.819Z,98471.91
2023-11-30T21:41:24.647Z,98472.04
2023-11-30T21:44:27.844Z,98470.49
2023-11-30T21:47:31.030Z,98473.15
2023-11-30T21:50:33.972Z,98474.84
2023-11-30T21:53:36.786Z,98475.81
2023-11-30T21:56:39.745Z,98476.47
2023-11-30T21:59:42.504Z,98478.92
2023-11-30T22:02:46.264Z,98475.69
2023-11-30T22:05:49.285Z,98476.90
2023-11-30T22:08:53.696Z,98476.88
2023-11-30T22:11:56.403Z,98481.64
2023-11-30T22:15:01.162Z,98481.25
2023-11-30T22:18:05.811Z,98483.52
2023-11-30T22:21:09.583Z,98489.38
2023-11-30T22:24:12.636Z,98490.05
2023-11-30T22:27:16.168Z,98489.65
2023-11-30T22:30:18.857Z,98488.12
2023-11-30T22:33:21.593Z,98487.54
2023-11-30T22:36:24.326Z,98484.26
2023-11-30T22:39:27.397Z,98480.60
2023-11-30T22:42:33.328Z,98476.31
2023-11-30T22:45:36.161Z,98476.30
2023-11-30T22:48:38.928Z,98480.98
2023-11-30T22:51:42.361Z,98480.50
2023-11-30T22:54:45.177Z,98474.55
2023-11-30T22:57:47.914Z,98468.31
2023-11-30T23:00:50.825Z,98462.13
2023-11-30T23:03:54.202Z,98464.36
2023-11-30T23:06:57.169Z,98464.18
2023-11-30T23:09:59.869Z,98469.36
2023-11-30T23:13:02.798Z,98467.96
2023-11-30T23:16:06.530Z,98465.38
2023-11-30T23:19:09.325Z,98468.27
2023-11-30T23:22:12.097Z,98467.61
2023-11-30T23:25:16.088Z,98466.63
2023-11-30T23:28:18.830Z,98467.14
2023-11-30T23:31:21.724Z,98466.65
2023-11-30T23:34:24.731Z,98466.09
2023-11-30T23:37:27.468Z,98464.70
2023-11-30T23:40:31.033Z,98467.55
2023-11-30T23:43:33.819Z,98470.70
2023-11-30T23:46:36.512Z,98476.13
2023-11-30T23:49:39.278Z,98485.05
2023-11-30T23:52:42.522Z,98489.85
2023-11-30T23:55:45.421Z,98487.88
2023-11-30T23:58:48.106Z,98491.32
